Time;durP1;ratioP1;P1;durP2;ratioP2;P2;SDS_P1;SDS_P2;PMS_P1;PMS_P2;Temp;Humidity;BMP_temperature;BMP_pressure;BME280_temperature;BME280_humidity;BME280_pressure;Samples;Min_cycle;Max_cycle;Signal;HPM_P1;HPM_P2
2022/06/29 00:00:20;;;;;;;9.23;4.78;;;;;;;25.41;67.03;100283.22;6210397;23;20095;-62
2022/06/29 00:02:46;;;;;;;8.95;4.90;;;;;;;25.45;66.91;100276.19;6210673;23;20016;-63
2022/06/29 00:05:13;;;;;;;8.00;5.30;;;;;;;25.43;66.74;100273.66;6210102;23;20015;-63
2022/06/29 00:07:39;;;;;;;14.20;5.15;;;;;;;25.48;66.78;100276.56;6183688;23;20051;-63
2022/06/29 00:10:05;;;;;;;8.90;5.32;;;;;;;25.48;66.59;100273.81;6210125;23;20047;-62
2022/06/29 00:12:31;;;;;;;8.30;4.60;;;;;;;25.43;66.91;100265.41;6183708;23;20456;-62
2022/06/29 00:14:58;;;;;;;10.65;5.40;;;;;;;25.44;66.85;100266.28;6210156;23;20066;-62
2022/06/29 00:17:23;;;;;;;8.63;5.10;;;;;;;25.50;66.90;100276.34;6210547;23;20036;-63
2022/06/29 00:19:49;;;;;;;5.65;4.55;;;;;;;25.33;67.25;100259.66;6213028;23;20004;-63
2022/06/29 00:22:15;;;;;;;9.95;4.50;;;;;;;25.37;67.28;100263.59;6187118;23;20008;-64
2022/06/29 00:24:41;;;;;;;7.25;4.75;;;;;;;25.45;67.32;100276.19;6213680;23;20688;-63
2022/06/29 00:27:08;;;;;;;8.90;4.80;;;;;;;25.41;67.08;100269.47;6213520;23;20071;-63
2022/06/29 00:29:34;;;;;;;9.20;5.05;;;;;;;25.36;67.24;100270.16;6211858;23;20000;-64
2022/06/29 00:31:59;;;;;;;9.57;5.03;;;;;;;25.42;67.27;100276.63;6213535;23;20019;-61
2022/06/29 00:34:24;;;;;;;7.07;5.03;;;;;;;25.41;67.25;100275.78;6186803;23;20079;-62
2022/06/29 00:36:50;;;;;;;10.00;4.97;;;;;;;25.33;67.08;100250.56;6213887;23;20011;-63
2022/06/29 00:39:15;;;;;;;9.43;4.93;;;;;;;25.37;67.54;100257.28;6213249;23;20012;-62
2022/06/29 00:41:43;;;;;;;8.15;4.63;;;;;;;25.38;67.58;100261.69;6211632;23;20012;-63
2022/06/29 00:44:13;;;;;;;6.90;4.32;;;;;;;25.33;67.77;100267.88;6213544;23;20086;-63
2022/06/29 00:46:47;;;;;;;7.53;4.85;;;;;;;25.28;67.98;100261.38;6213441;23;20430;-62
2022/06/29 00:49:15;;;;;;;9.82;5.68;;;;;;;25.21;68.30;100253.22;6213367;23;20005;-63
2022/06/29 00:51:45;;;;;;;9.00;5.30;;;;;;;25.20;68.43;100247.94;6213685;23;20007;-63
2022/06/29 00:54:15;;;;;;;8.50;4.93;;;;;;;25.15;68.70;100247.81;6213560;23;20411;-64
2022/06/29 00:56:41;;;;;;;8.43;4.90;;;;;;;25.11;68.82;100250.19;6213661;23;20016;-63
2022/06/29 00:59:11;;;;;;;7.70;4.75;;;;;;;25.12;68.96;100253.78;6213584;23;20461;-64
2022/06/29 01:01:38;;;;;;;11.73;4.70;;;;;;;25.06;69.05;100244.56;6213444;23;20020;-62
2022/06/29 01:04:04;;;;;;;11.93;5.47;;;;;;;25.04;69.23;100245.84;6213327;23;20043;-64
2022/06/29 01:06:29;;;;;;;6.43;4.50;;;;;;;25.02;69.00;100248.81;6213500;23;20319;-63
2022/06/29 01:08:55;;;;;;;10.45;5.22;;;;;;;24.96;68.94;100237.91;6186761;23;20036;-63
2022/06/29 01:11:20;;;;;;;8.70;4.65;;;;;;;24.95;69.25;100239.81;6213472;23;19996;-63
2022/06/29 01:13:47;;;;;;;7.90;4.72;;;;;;;24.90;69.35;100230.59;6213290;23;20004;-63
2022/06/29 01:16:13;;;;;;;7.85;5.22;;;;;;;24.91;69.68;100240.50;6213309;23;20036;-62
2022/06/29 01:18:38;;;;;;;7.60;4.72;;;;;;;24.85;70.02;100235.94;6213479;23;20449;-61
2022/06/29 01:21:05;;;;;;;7.53;4.78;;;;;;;24.81;70.25;100241.06;6213329;23;20008;-63
2022/06/29 01:23:31;;;;;;;7.55;4.60;;;;;;;24.70;70.45;100238.22;6213402;23;20004;-71
2022/06/29 01:25:57;;;;;;;6.97;4.78;;;;;;;24.60;70.94;100227.72;6213260;23;20004;-72
2022/06/29 01:28:22;;;;;;;8.25;5.43;;;;;;;24.50;71.22;100218.38;6213622;23;20062;-72
2022/06/29 01:30:48;;;;;;;7.50;4.80;;;;;;;24.60;71.62;100235.97;6212529;23;20438;-72
2022/06/29 01:33:13;;;;;;;9.40;5.15;;;;;;;24.54;71.68;100225.06;6212034;23;20016;-61
2022/06/29 01:35:39;;;;;;;7.72;5.05;;;;;;;24.47;72.11;100225.13;6211979;23;20004;-63
2022/06/29 01:38:04;;;;;;;9.98;5.22;;;;;;;24.41;72.37;100215.91;6211617;23;20011;-63
2022/06/29 01:40:30;;;;;;;11.85;4.93;;;;;;;24.43;72.57;100232.13;6211602;23;20001;-62
2022/06/29 01:42:55;;;;;;;9.57;5.60;;;;;;;24.36;72.75;100232.22;6211662;23;20008;-66
2022/06/29 01:45:21;;;;;;;9.45;5.30;;;;;;;24.31;72.94;100223.81;6185121;23;20038;-64
2022/06/29 01:47:46;;;;;;;7.05;4.93;;;;;;;24.28;73.59;100224.25;6212024;23;20080;-61
2022/06/29 01:50:12;;;;;;;7.85;5.25;;;;;;;24.25;73.73;100221.16;6211759;23;20366;-63
2022/06/29 01:52:38;;;;;;;8.02;5.57;;;;;;;24.21;73.68;100218.00;6211686;23;20009;-63
2022/06/29 01:55:03;;;;;;;7.03;5.38;;;;;;;24.19;73.98;100222.03;6211255;23;20032;-62
2022/06/29 01:57:29;;;;;;;8.45;5.38;;;;;;;24.13;74.24;100233.91;6211228;23;20385;-63
2022/06/29 01:59:54;;;;;;;7.03;5.50;;;;;;;24.04;74.38;100225.13;6184460;23;20013;-62
2022/06/29 02:02:20;;;;;;;7.95;5.30;;;;;;;23.97;74.47;100218.03;6185207;23;20047;-63
2022/06/29 02:04:45;;;;;;;7.28;5.25;;;;;;;23.97;74.68;100227.09;6211455;23;20118;-64
2022/06/29 02:07:11;;;;;;;6.72;5.20;;;;;;;23.91;75.13;100219.72;6211401;23;20011;-63
2022/06/29 02:09:36;;;;;;;7.80;4.90;;;;;;;23.93;75.33;100235.94;6211342;23;20001;-64
2022/06/29 02:12:02;;;;;;;9.90;5.50;;;;;;;23.90;75.66;100226.25;6211249;23;20005;-63
2022/06/29 02:14:29;;;;;;;9.02;5.50;;;;;;;23.84;76.07;100224.41;6211313;23;20004;-64
2022/06/29 02:16:55;;;;;;;7.65;5.38;;;;;;;23.84;75.95;100224.41;6210027;23;20015;-73
2022/06/29 02:19:20;;;;;;;9.25;5.28;;;;;;;23.80;76.36;100220.41;6211719;23;20009;-71
2022/06/29 02:21:46;;;;;;;8.05;5.38;;;;;;;23.77;76.79;100220.88;6211789;23;20031;-72
2022/06/29 02:24:11;;;;;;;6.53;5.03;;;;;;;23.76;76.74;100237.56;6211417;23;20406;-72
2022/06/29 02:26:37;;;;;;;7.10;5.82;;;;;;;23.68;76.93;100230.44;6211395;23;20000;-72
2022/06/29 02:29:02;;;;;;;7.20;4.90;;;;;;;23.63;76.94;100215.75;6211187;23;20054;-72
2022/06/29 02:36:55;;;;;;;10.90;5.70;;;;;;;23.54;78.28;100206.91;6211245;23;20011;-71
2022/06/29 02:39:21;;;;;;;17.58;5.93;;;;;;;23.54;78.29;100211.56;6210850;23;20654;-72
2022/06/29 02:41:46;;;;;;;9.30;5.57;;;;;;;23.47;78.13;100200.66;6210856;23;20082;-72
2022/06/29 02:44:12;;;;;;;12.40;5.25;;;;;;;23.47;77.71;100186.16;6184372;23;20028;-72
2022/06/29 02:46:37;;;;;;;12.30;5.78;;;;;;;23.55;77.51;100208.63;6211118;23;20362;-72
2022/06/29 02:49:03;;;;;;;8.63;5.40;;;;;;;23.58;77.28;100207.31;6210957;23;20066;-72
2022/06/29 02:51:28;;;;;;;11.23;5.60;;;;;;;23.57;77.10;100208.41;6211012;23;20004;-71
2022/06/29 02:53:54;;;;;;;12.50;5.35;;;;;;;23.57;76.94;100202.91;6211036;23;20012;-72
2022/06/29 02:56:19;;;;;;;14.13;5.35;;;;;;;23.58;76.89;100202.69;6209101;23;20025;-71
2022/06/29 02:58:45;;;;;;;10.60;5.57;;;;;;;23.51;77.12;100196.41;6211195;23;20012;-63
2022/06/29 03:01:10;;;;;;;6.60;5.63;;;;;;;23.54;77.07;100201.44;6210737;23;20067;-62
2022/06/29 03:03:35;;;;;;;12.82;6.50;;;;;;;23.54;77.16;100206.09;6211064;23;20398;-71
2022/06/29 03:06:01;;;;;;;7.88;4.90;;;;;;;23.51;77.30;100215.56;6210616;23;20433;-71
2022/06/29 03:08:26;;;;;;;9.43;5.55;;;;;;;23.52;77.35;100214.53;6210728;23;20310;-62
2022/06/29 03:10:52;;;;;;;8.43;5.28;;;;;;;23.52;77.19;100217.28;6211012;23;20008;-72
2022/06/29 03:13:17;;;;;;;9.25;5.97;;;;;;;23.55;76.72;100202.28;6210593;23;20005;-71
2022/06/29 03:15:43;;;;;;;11.27;5.53;;;;;;;23.59;76.57;100198.03;6210802;23;20009;-71
2022/06/29 03:18:09;;;;;;;8.75;5.20;;;;;;;23.67;76.26;100190.38;6210906;23;20019;-72
2022/06/29 03:20:34;;;;;;;7.82;5.95;;;;;;;23.70;75.95;100200.91;6210911;23;20322;-71
2022/06/29 03:23:00;;;;;;;12.82;6.00;;;;;;;23.73;76.01;100192.25;6210620;23;20075;-71
2022/06/29 03:25:25;;;;;;;7.72;5.10;;;;;;;23.82;75.57;100198.28;6210628;23;20005;-72
2022/06/29 03:27:50;;;;;;;8.73;5.47;;;;;;;23.86;75.21;100200.34;6211138;23;20011;-72
2022/06/29 03:30:18;;;;;;;7.18;5.40;;;;;;;23.89;75.25;100197.19;6210425;23;20051;-71
2022/06/29 03:32:43;;;;;;;7.18;5.25;;;;;;;23.96;75.03;100205.38;6210760;23;20517;-72
2022/06/29 03:35:09;;;;;;;11.88;6.15;;;;;;;24.00;74.97;100212.09;6210558;23;20015;-70
2022/06/29 03:37:34;;;;;;;9.88;5.53;;;;;;;24.01;74.81;100203.66;6210470;23;20015;-72
2022/06/29 03:40:00;;;;;;;7.47;5.63;;;;;;;23.98;75.04;100198.63;6210290;23;20318;-72
2022/06/29 03:42:25;;;;;;;13.48;5.72;;;;;;;24.07;75.03;100213.72;6211111;23;20015;-72
2022/06/29 03:44:51;;;;;;;17.08;6.40;;;;;;;24.13;75.02;100214.72;6210572;23;20063;-72
2022/06/29 03:47:16;;;;;;;12.15;6.32;;;;;;;24.13;74.72;100210.09;6205996;23;20028;-72
2022/06/29 03:49:42;;;;;;;11.32;5.57;;;;;;;24.21;74.50;100219.91;6210286;23;20034;-72
2022/06/29 03:52:07;;;;;;;10.13;5.40;;;;;;;24.25;74.13;100221.97;6209891;23;20413;-73
2022/06/29 03:54:33;;;;;;;14.73;6.20;;;;;;;24.30;74.27;100224.03;6210361;23;20678;-72
2022/06/29 03:56:58;;;;;;;12.35;6.35;;;;;;;24.31;74.24;100223.81;6209956;23;20027;-71
2022/06/29 03:59:24;;;;;;;12.95;5.50;;;;;;;24.36;74.40;100217.66;6211192;23;20067;-72
2022/06/29 04:01:50;;;;;;;14.23;6.68;;;;;;;24.44;74.25;100220.94;6210149;23;20016;-72
2022/06/29 04:04:16;;;;;;;14.38;6.25;;;;;;;24.53;74.10;100223.41;6210235;23;20004;-72
2022/06/29 04:06:41;;;;;;;10.27;6.40;;;;;;;24.60;73.95;100215.94;6210419;23;20005;-72
2022/06/29 04:09:07;;;;;;;20.38;7.22;;;;;;;24.70;73.05;100211.63;6210083;23;20450;-72
2022/06/29 04:14:17;;;;;;;16.75;7.03;;;;;;;24.80;72.59;100205.59;6210216;23;20043;-72
2022/06/29 04:16:42;;;;;;;12.80;6.25;;;;;;;24.92;71.81;100221.06;6210426;23;20008;-72
2022/06/29 04:19:08;;;;;;;9.15;6.60;;;;;;;25.03;71.44;100219.47;6210037;23;20018;-72
2022/06/29 04:21:33;;;;;;;8.93;5.97;;;;;;;25.13;71.17;100220.59;6210261;23;20001;-72
2022/06/29 04:23:59;;;;;;;9.60;6.15;;;;;;;25.20;70.40;100215.84;6210252;23;20013;-72
2022/06/29 04:26:24;;;;;;;9.50;5.50;;;;;;;25.32;70.28;100222.28;6210476;23;20172;-72
2022/06/29 04:28:50;;;;;;;12.50;6.80;;;;;;;25.36;69.27;100215.25;6210242;23;20001;-73
2022/06/29 04:31:15;;;;;;;10.25;5.97;;;;;;;25.41;68.65;100211.81;6209824;23;20072;-72
2022/06/29 04:33:41;;;;;;;10.02;5.35;;;;;;;25.60;68.38;100211.50;6210249;23;20047;-73
2022/06/29 04:36:06;;;;;;;11.27;6.10;;;;;;;25.72;67.87;100223.38;6210064;23;20015;-72
2022/06/29 04:38:32;;;;;;;12.57;6.57;;;;;;;25.83;67.72;100221.72;6183571;23;20007;-72
2022/06/29 04:40:59;;;;;;;11.15;6.00;;;;;;;25.87;67.45;100207.28;6210293;23;20008;-73
2022/06/29 04:43:27;;;;;;;11.30;5.57;;;;;;;26.03;66.73;100223.13;6210544;23;20202;-72
2022/06/29 04:48:37;;;;;;;11.57;6.60;;;;;;;26.18;65.39;100209.72;6210527;23;20114;-72
2022/06/29 04:51:02;;;;;;;7.47;5.45;;;;;;;26.30;64.83;100205.06;6210235;23;20005;-72
2022/06/29 04:53:28;;;;;;;10.23;6.20;;;;;;;26.48;64.12;100204.13;6210269;23;20028;-72
2022/06/29 04:55:53;;;;;;;9.80;5.82;;;;;;;26.51;64.05;100203.63;6210368;23;20650;-71
2022/06/29 04:58:19;;;;;;;11.95;6.20;;;;;;;26.61;63.76;100198.38;6210094;23;20020;-63
2022/06/29 05:00:44;;;;;;;11.65;6.63;;;;;;;26.75;63.11;100198.94;6209899;23;20013;-62
2022/06/29 05:03:10;;;;;;;12.27;6.28;;;;;;;26.85;62.83;100201.94;6210241;23;20036;-72
2022/06/29 05:05:35;;;;;;;9.00;5.68;;;;;;;26.99;62.33;100211.59;6211554;23;20339;-72
2022/06/29 05:08:01;;;;;;;11.13;5.60;;;;;;;27.09;61.84;100201.63;6211955;23;20005;-64
2022/06/29 05:10:26;;;;;;;12.90;5.88;;;;;;;27.20;61.87;100208.16;6212112;23;20071;-64
2022/06/29 05:12:51;;;;;;;10.32;5.32;;;;;;;27.29;61.67;100210.34;6212014;23;20437;-62
2022/06/29 05:15:17;;;;;;;10.52;5.55;;;;;;;27.34;60.86;100204.09;6211652;23;20637;-64
2022/06/29 05:17:42;;;;;;;8.20;5.10;;;;;;;27.45;61.07;100206.78;6211821;23;20499;-63
2022/06/29 05:20:09;;;;;;;7.53;5.60;;;;;;;27.59;60.11;100202.63;6211584;23;20016;-64
2022/06/29 05:22:35;;;;;;;10.68;5.63;;;;;;;27.68;59.10;100198.41;6212139;23;20422;-63
2022/06/29 05:25:01;;;;;;;8.40;5.03;;;;;;;27.83;59.09;100215.19;6211722;23;20012;-63
2022/06/29 05:27:27;;;;;;;9.75;5.07;;;;;;;27.96;58.70;100216.84;6211940;23;20012;-64
2022/06/29 05:29:53;;;;;;;15.63;5.72;;;;;;;27.97;58.08;100200.03;6211983;23;20434;-63
2022/06/29 05:32:18;;;;;;;7.00;4.50;;;;;;;28.20;57.65;100216.41;6211485;23;20815;-63
2022/06/29 05:34:44;;;;;;;8.13;5.15;;;;;;;28.33;56.88;100210.56;6211967;23;20425;-64
2022/06/29 05:37:09;;;;;;;8.32;5.07;;;;;;;28.41;57.26;100207.34;6211788;23;20012;-64
2022/06/29 05:39:35;;;;;;;12.98;6.45;;;;;;;28.51;57.11;100210.28;6211649;23;20001;-64
2022/06/29 05:42:00;;;;;;;7.03;5.03;;;;;;;28.54;56.79;100201.50;6211585;23;20001;-62
2022/06/29 05:44:25;;;;;;;11.43;5.03;;;;;;;28.71;56.53;100211.66;6211858;23;20072;-63
2022/06/29 05:46:51;;;;;;;8.60;5.18;;;;;;;28.84;56.22;100214.06;6211353;23;20009;-62
2022/06/29 05:49:16;;;;;;;7.43;5.05;;;;;;;28.95;55.64;100213.94;6211607;23;20091;-63
2022/06/29 05:51:42;;;;;;;7.18;4.65;;;;;;;29.08;54.65;100208.06;6211662;23;20016;-64
2022/06/29 05:54:07;;;;;;;7.13;4.47;;;;;;;29.16;54.17;100192.97;6211537;23;20016;-64
2022/06/29 05:56:33;;;;;;;10.25;5.18;;;;;;;29.34;53.33;100218.31;6209778;23;20020;-64
2022/06/29 05:58:59;;;;;;;7.20;4.25;;;;;;;29.45;53.57;100216.50;6211799;23;20378;-73
2022/06/29 06:01:24;;;;;;;6.50;4.38;;;;;;;29.58;53.18;100213.34;6211524;23;20013;-72
2022/06/29 06:03:50;;;;;;;11.05;4.70;;;;;;;29.71;52.53;100213.78;6184894;23;20438;-73
2022/06/29 06:06:15;;;;;;;9.38;4.60;;;;;;;29.88;51.75;100211.72;6211537;23;20422;-72
2022/06/29 06:08:41;;;;;;;11.10;5.07;;;;;;;30.00;50.69;100211.56;6184786;23;20008;-72
2022/06/29 06:11:06;;;;;;;11.23;5.32;;;;;;;30.11;50.40;100208.59;6211371;23;19996;-63
2022/06/29 06:13:32;;;;;;;13.00;4.60;;;;;;;30.23;49.74;100208.47;6211560;23;20008;-64
2022/06/29 06:15:58;;;;;;;10.43;4.35;;;;;;;30.34;49.37;100208.25;6184774;23;20571;-64
2022/06/29 06:18:23;;;;;;;11.60;4.60;;;;;;;30.56;48.64;100208.13;6211619;23;20094;-63
2022/06/29 06:20:49;;;;;;;10.38;4.88;;;;;;;30.67;48.13;100201.56;6211955;23;20018;-64
2022/06/29 06:23:14;;;;;;;10.48;5.15;;;;;;;30.76;47.60;100197.22;6211559;23;20087;-63
2022/06/29 06:25:40;;;;;;;8.00;4.90;;;;;;;30.91;47.28;100205.59;6211888;23;20025;-63
2022/06/29 06:28:05;;;;;;;9.57;4.53;;;;;;;31.02;47.56;100201.78;6211495;23;20005;-67
2022/06/29 06:30:31;;;;;;;6.50;4.25;;;;;;;31.19;46.90;100205.16;6184693;23;19996;-64
2022/06/29 06:32:57;;;;;;;8.02;4.53;;;;;;;31.28;46.80;100209.13;6211451;23;20009;-64
2022/06/29 06:35:23;;;;;;;8.15;4.75;;;;;;;31.43;46.66;100203.59;6211039;23;20035;-64
2022/06/29 06:37:49;;;;;;;8.70;4.75;;;;;;;31.54;46.10;100196.97;6211259;23;20023;-72
2022/06/29 06:42:59;;;;;;;10.50;4.82;;;;;;;31.76;45.45;100183.69;6211221;23;20069;-70
2022/06/29 06:45:25;;;;;;;9.10;4.00;;;;;;;31.95;44.64;100201.47;6210671;23;20012;-73
2022/06/29 06:47:52;;;;;;;8.38;4.65;;;;;;;32.13;44.51;100194.53;6211169;23;20015;-73
2022/06/29 06:50:17;;;;;;;10.48;4.63;;;;;;;32.25;44.17;100200.66;6210807;23;20337;-72
2022/06/29 06:52:43;;;;;;;10.80;4.20;;;;;;;32.39;43.94;100199.84;6210979;23;20004;-73
2022/06/29 06:55:09;;;;;;;9.15;4.40;;;;;;;32.40;43.71;100184.81;6210770;23;20005;-73
2022/06/29 06:57:35;;;;;;;6.25;4.38;;;;;;;32.61;43.04;100202.28;6210807;23;20019;-72
2022/06/29 07:00:01;;;;;;;5.97;4.03;;;;;;;32.67;42.52;100198.38;6210925;23;20016;-72
2022/06/29 07:02:26;;;;;;;9.88;4.18;;;;;;;32.71;42.45;100190.31;6210546;23;20008;-72
2022/06/29 07:04:52;;;;;;;10.25;4.07;;;;;;;32.85;42.48;100191.41;6210821;23;20019;-73
2022/06/29 07:07:17;;;;;;;7.55;4.05;;;;;;;32.92;40.94;100186.38;6210718;23;20459;-74
2022/06/29 07:09:43;;;;;;;10.65;4.35;;;;;;;33.06;40.89;100184.66;6210853;23;20016;-72
2022/06/29 07:12:08;;;;;;;7.32;3.88;;;;;;;33.23;40.31;100188.75;6210934;23;20103;-74
2022/06/29 07:14:34;;;;;;;5.35;3.67;;;;;;;33.33;39.40;100179.53;6211235;23;20008;-73
2022/06/29 07:17:00;;;;;;;8.55;3.45;;;;;;;33.46;39.52;100187.28;6183966;23;20481;-73
2022/06/29 07:19:25;;;;;;;7.78;3.83;;;;;;;33.60;39.13;100177.16;6210485;23;20083;-73
2022/06/29 07:21:50;;;;;;;4.07;3.60;;;;;;;33.74;38.56;100176.22;6210649;23;20009;-73
2022/06/29 07:24:16;;;;;;;9.43;4.40;;;;;;;33.88;38.30;100173.66;6210476;23;20008;-73
2022/06/29 07:26:41;;;;;;;9.15;3.78;;;;;;;33.97;38.45;100171.88;6210717;23;20007;-73
2022/06/29 07:29:07;;;;;;;7.78;4.00;;;;;;;34.06;38.04;100159.00;6210081;23;20015;-73
2022/06/29 07:31:32;;;;;;;4.20;3.60;;;;;;;34.20;37.98;100171.94;6210792;23;20442;-74
2022/06/29 07:33:58;;;;;;;7.25;4.00;;;;;;;34.32;37.71;100171.56;6210666;23;20017;-73
2022/06/29 07:36:25;;;;;;;6.38;3.63;;;;;;;34.32;37.58;100168.78;6208736;23;20146;-74
2022/06/29 07:38:51;;;;;;;5.15;4.13;;;;;;;34.48;37.66;100176.72;6184152;23;20099;-63
2022/06/29 07:41:17;;;;;;;5.95;3.42;;;;;;;34.65;36.75;100172.66;6210245;23;20446;-64
2022/06/29 07:43:43;;;;;;;6.65;4.53;;;;;;;34.69;36.82;100162.56;6210443;23;20090;-64
2022/06/29 07:46:09;;;;;;;6.47;3.97;;;;;;;34.79;36.71;100174.44;6210424;23;20011;-63
2022/06/29 07:48:35;;;;;;;7.13;3.83;;;;;;;34.87;36.80;100171.00;6210836;23;20005;-63
2022/06/29 07:51:00;;;;;;;7.57;4.35;;;;;;;34.95;36.35;100170.34;6210936;23;20088;-62
2022/06/29 07:53:26;;;;;;;7.40;3.85;;;;;;;35.03;35.77;100171.63;6210044;23;20043;-64
2022/06/29 07:55:52;;;;;;;9.75;4.97;;;;;;;35.14;35.28;100170.38;6210432;23;20088;-64
2022/06/29 07:58:17;;;;;;;7.90;3.70;;;;;;;35.26;35.48;100168.81;6210108;23;20154;-63
2022/06/29 08:00:43;;;;;;;6.60;3.70;;;;;;;35.37;35.57;100166.75;6210210;23;20346;-64
2022/06/29 08:03:09;;;;;;;6.32;3.70;;;;;;;35.43;34.77;100166.34;6210106;23;20008;-64
2022/06/29 08:05:35;;;;;;;8.15;4.10;;;;;;;35.54;34.61;100159.50;6210410;23;20009;-63
2022/06/29 08:08:02;;;;;;;7.88;3.60;;;;;;;35.63;35.05;100168.88;6183577;23;20015;-64
2022/06/29 08:10:27;;;;;;;7.15;3.88;;;;;;;35.80;34.22;100176.72;6209990;23;20016;-64
2022/06/29 08:12:53;;;;;;;8.13;4.15;;;;;;;35.74;34.00;100152.75;6210414;23;20730;-63
2022/06/29 08:15:19;;;;;;;5.82;3.92;;;;;;;35.77;34.31;100157.75;6183236;23;20543;-64
2022/06/29 08:17:45;;;;;;;9.57;4.35;;;;;;;35.83;34.21;100165.78;6183514;23;20009;-63
2022/06/29 08:20:11;;;;;;;5.47;3.60;;;;;;;35.87;34.00;100172.41;6209864;23;20012;-64
2022/06/29 08:22:37;;;;;;;7.25;3.50;;;;;;;35.87;34.23;100169.63;6210636;23;20012;-63
2022/06/29 08:25:03;;;;;;;6.68;4.10;;;;;;;35.90;34.22;100170.97;6210341;23;20005;-62
2022/06/29 08:27:30;;;;;;;7.03;4.05;;;;;;;35.92;34.01;100180.72;6210023;23;20001;-62
2022/06/29 08:29:56;;;;;;;6.63;3.85;;;;;;;35.96;34.09;100175.31;6210327;23;20326;-64
2022/06/29 08:32:22;;;;;;;7.32;3.75;;;;;;;35.90;33.89;100163.41;6210174;23;20008;-63
2022/06/29 08:34:48;;;;;;;6.05;4.05;;;;;;;35.91;33.80;100167.06;6210366;23;20009;-63
2022/06/29 08:37:13;;;;;;;7.30;3.55;;;;;;;35.93;34.08;100159.19;6183707;23;20008;-64
2022/06/29 08:39:39;;;;;;;5.53;3.60;;;;;;;36.00;33.72;100159.63;6210885;23;20020;-63
2022/06/29 08:42:05;;;;;;;9.35;3.70;;;;;;;36.03;33.60;100161.78;6185754;23;20426;-63
2022/06/29 08:44:38;;;;;;;7.88;3.72;;;;;;;36.02;33.37;100158.19;6212045;23;20654;-64
2022/06/29 08:47:05;;;;;;;5.80;4.30;;;;;;;36.02;33.42;100162.94;6212040;23;20457;-64
2022/06/29 08:49:32;;;;;;;7.35;3.80;;;;;;;35.94;33.04;100147.72;6185447;23;20000;-65
2022/06/29 08:51:59;;;;;;;4.75;3.40;;;;;;;36.01;33.35;100162.09;6213043;23;20082;-64
2022/06/29 08:54:25;;;;;;;9.25;3.72;;;;;;;36.09;33.11;100166.16;6212618;23;20114;-75
2022/06/29 08:56:54;;;;;;;6.68;3.25;;;;;;;36.18;32.71;100159.59;6180389;23;20021;-73
2022/06/29 08:59:23;;;;;;;3.47;3.05;;;;;;;36.22;32.75;100165.38;6181903;23;20084;-74
2022/06/29 09:01:50;;;;;;;5.57;3.22;;;;;;;36.31;32.54;100167.19;6181738;23;20693;-74
2022/06/29 09:04:17;;;;;;;4.35;3.30;;;;;;;36.24;32.35;100137.97;6181877;23;20076;-75
2022/06/29 09:06:43;;;;;;;4.10;3.20;;;;;;;36.37;32.16;100156.75;6180125;23;20052;-74
2022/06/29 09:09:09;;;;;;;6.10;2.90;;;;;;;36.41;31.94;100153.03;6181777;23;20044;-74
2022/06/29 09:11:39;;;;;;;6.15;3.08;;;;;;;36.41;31.54;100130.69;6180856;23;20008;-74
2022/06/29 09:14:19;;;;;;;7.50;3.00;;;;;;;36.54;31.19;100143.84;6180014;23;20062;-73
2022/06/29 09:16:54;;;;;;;4.60;3.10;;;;;;;36.55;31.04;100144.66;6181371;23;20016;-73
2022/06/29 09:19:21;;;;;;;4.07;3.00;;;;;;;36.54;30.82;100134.63;6181521;23;20032;-73
2022/06/29 09:21:48;;;;;;;14.10;3.88;;;;;;;36.54;30.42;100141.03;6181010;23;20055;-74
2022/06/29 09:24:15;;;;;;;4.82;3.05;;;;;;;36.59;30.15;100134.53;6181105;23;20001;-74
2022/06/29 09:26:41;;;;;;;7.53;3.13;;;;;;;36.47;30.82;100132.22;6180321;23;20004;-73
2022/06/29 09:29:27;;;;;;;4.97;3.45;;;;;;;36.40;31.01;100140.19;6181223;23;20008;-73
2022/06/29 09:32:02;;;;;;;6.80;2.95;;;;;;;36.45;30.68;100150.44;6179843;23;20028;-73
2022/06/29 09:34:48;;;;;;;4.07;2.92;;;;;;;36.39;30.17;100146.91;6181341;23;20017;-74
2022/06/29 09:37:15;;;;;;;4.93;2.90;;;;;;;36.43;29.68;100141.56;6181313;23;20013;-74
2022/06/29 09:39:41;;;;;;;5.18;2.72;;;;;;;36.37;29.80;100145.56;6180072;23;20032;-74
2022/06/29 09:42:11;;;;;;;2.78;2.50;;;;;;;36.35;29.92;100133.88;6180709;23;20004;-74
2022/06/29 09:44:37;;;;;;;9.15;3.00;;;;;;;36.29;29.75;100140.69;6181176;23;20011;-73
2022/06/29 09:47:06;;;;;;;3.35;2.60;;;;;;;36.27;29.51;100134.59;6179859;23;20032;-74
2022/06/29 09:49:33;;;;;;;3.38;2.53;;;;;;;36.32;29.76;100128.88;6180994;23;20008;-72
2022/06/29 09:52:00;;;;;;;4.80;2.40;;;;;;;36.38;29.86;100117.31;6180297;23;20678;-73
2022/06/29 09:54:35;;;;;;;7.68;3.38;;;;;;;36.37;30.11;100118.44;6181673;23;20088;-75
2022/06/29 09:57:01;;;;;;;4.43;2.80;;;;;;;36.33;29.57;100114.63;6178694;23;20017;-72
2022/06/29 10:05:11;;;;;;;3.92;3.00;;;;;;;36.48;29.02;100111.53;6180713;23;20032;-64
2022/06/29 10:07:39;;;;;;;8.15;3.15;;;;;;;36.42;29.28;100095.16;6181314;23;20005;-63
2022/06/29 10:10:11;;;;;;;4.38;2.88;;;;;;;36.43;29.61;100100.44;6181266;23;20005;-64
2022/06/29 10:16:28;;;;;;;8.15;2.95;;;;;;;36.29;29.52;100094.03;6180902;23;20717;-63
2022/06/29 10:18:56;;;;;;;5.93;2.45;;;;;;;36.21;29.37;100099.47;6144222;23;20080;-63
2022/06/29 10:21:27;;;;;;;4.78;2.40;;;;;;;36.15;30.10;100093.16;6180648;23;20529;-64
2022/06/29 10:23:57;;;;;;;4.68;2.72;;;;;;;36.15;30.02;100090.38;6179433;23;20067;-64
2022/06/29 10:26:35;;;;;;;3.38;2.60;;;;;;;36.19;29.41;100083.00;6180826;23;20020;-64
2022/06/29 10:29:06;;;;;;;4.63;3.33;;;;;;;36.26;29.27;100086.25;6179583;23;20451;-64
2022/06/29 10:31:51;;;;;;;3.95;2.95;;;;;;;36.24;28.66;100082.91;6181061;23;20009;-65
2022/06/29 10:34:28;;;;;;;4.18;2.75;;;;;;;36.27;28.50;100073.94;6180684;23;20036;-64
2022/06/29 10:37:04;;;;;;;5.50;2.80;;;;;;;36.26;28.85;100075.06;6179314;23;20203;-64
2022/06/29 10:39:45;;;;;;;2.97;2.72;;;;;;;36.30;28.40;100070.53;6180504;23;20442;-65
2022/06/29 10:45:13;;;;;;;8.15;2.33;;;;;;;36.27;28.83;100067.53;6180406;23;20067;-64
2022/06/29 10:47:39;;;;;;;3.28;2.63;;;;;;;36.21;28.52;100060.34;6180798;23;20028;-64
2022/06/29 10:50:14;;;;;;;4.40;2.97;;;;;;;36.24;28.20;100068.13;6180432;23;20005;-64
2022/06/29 10:52:40;;;;;;;4.05;2.70;;;;;;;36.19;28.33;100060.66;6180583;23;20035;-64
2022/06/29 10:55:07;;;;;;;3.97;2.75;;;;;;;36.25;28.12;100047.41;6180543;23;20008;-65
2022/06/29 10:57:36;;;;;;;2.58;2.38;;;;;;;36.27;28.21;100051.59;6197834;23;20464;-62
2022/06/29 11:00:06;;;;;;;4.20;2.70;;;;;;;36.31;28.35;100047.06;6183850;23;20354;-63
2022/06/29 11:02:32;;;;;;;3.38;2.47;;;;;;;36.32;28.42;100054.28;6210588;23;20005;-63
2022/06/29 11:04:58;;;;;;;7.43;2.83;;;;;;;36.36;28.18;100062.84;6210483;23;20019;-64
2022/06/29 11:12:54;;;;;;;4.68;2.58;;;;;;;36.32;27.53;100036.69;6210634;23;20012;-64
2022/06/29 11:15:47;;;;;;;3.97;2.58;;;;;;;36.26;28.07;100027.59;6210286;23;20074;-62
2022/06/29 11:18:13;;;;;;;5.18;2.65;;;;;;;36.30;28.18;100037.00;6210247;23;20008;-64
2022/06/29 11:20:40;;;;;;;3.45;2.38;;;;;;;36.33;28.23;100041.97;6210466;23;20082;-64
2022/06/29 11:23:14;;;;;;;2.90;2.22;;;;;;;36.34;27.80;100035.22;6210486;23;20009;-64
2022/06/29 11:25:45;;;;;;;4.20;2.45;;;;;;;36.42;27.62;100037.31;6210596;23;20507;-64
2022/06/29 11:28:11;;;;;;;4.88;2.92;;;;;;;36.48;27.96;100022.09;6183269;23;20016;-64
2022/06/29 11:30:37;;;;;;;3.30;2.15;;;;;;;36.50;26.89;100022.59;6183503;23;20044;-64
2022/06/29 11:33:10;;;;;;;2.38;2.17;;;;;;;36.44;26.84;100023.88;6210268;23;20008;-64
2022/06/29 11:35:38;;;;;;;3.00;2.63;;;;;;;36.35;27.24;100027.69;6210131;23;20012;-64
2022/06/29 11:38:05;;;;;;;3.40;2.47;;;;;;;36.34;27.55;100026.03;6210359;23;20004;-65
2022/06/29 11:40:41;;;;;;;4.50;2.20;;;;;;;36.32;27.81;100029.13;6209963;23;20066;-64
2022/06/29 11:43:14;;;;;;;8.23;2.83;;;;;;;36.25;27.73;100011.94;6210520;23;20011;-64
2022/06/29 11:45:51;;;;;;;3.88;2.42;;;;;;;36.20;27.70;100017.59;6210191;23;20331;-63
2022/06/29 11:48:24;;;;;;;4.03;2.53;;;;;;;36.22;27.95;100009.75;6210202;23;20009;-64
2022/06/29 11:51:10;;;;;;;7.32;2.33;;;;;;;36.27;28.05;100011.66;6210340;23;20004;-64
2022/06/29 11:53:44;;;;;;;4.30;2.53;;;;;;;36.24;28.32;100015.84;6210148;23;20724;-64